Terminal Aerodrome Forecast
Issued by NWS

Home | Current Version | Previous Version | Text Only | Print | Product List | Glossary On
Versions: 1 2 3 4 5 6 7 8 9 10 11 12 13 14 15
291
FTUS43 KLSX 231122
TAFUIN
TAF
KUIN 231122Z 2312/2412 13012KT P6SM VCSH OVC050
      TEMPO 2316/2318 6SM -TSRA OVC025CB
     FM231900 14013KT P6SM VCSH OVC035
     FM232100 14015KT P6SM BKN250
     FM240200 16014KT P6SM SCT250 WS014/20045KT=

USA.gov is the U.S. government's official web portal to all federal, state and local government web resources and services.